sensor_id;sensor_type;location;lat;lon;timestamp;P1;durP1;ratioP1;P2;durP2;ratioP2
66946;SDS011;53853;51.982;5.928;2022-12-29T00:01:50;5.38;;;3.25;;
66946;SDS011;53853;51.982;5.928;2022-12-29T00:04:21;5.43;;;2.72;;
66946;SDS011;53853;51.982;5.928;2022-12-29T00:06:52;4.43;;;2.85;;
66946;SDS011;53853;51.982;5.928;2022-12-29T00:09:22;4.78;;;2.75;;
66946;SDS011;53853;51.982;5.928;2022-12-29T00:11:52;4.47;;;2.92;;
66946;SDS011;53853;51.982;5.928;2022-12-29T00:14:24;4.82;;;3.08;;
66946;SDS011;53853;51.982;5.928;2022-12-29T00:17:07;4.95;;;3.10;;
66946;SDS011;53853;51.982;5.928;2022-12-29T00:19:37;5.43;;;3.30;;
66946;SDS011;53853;51.982;5.928;2022-12-29T00:22:20;5.20;;;2.67;;
66946;SDS011;53853;51.982;5.928;2022-12-29T00:25:02;4.40;;;2.92;;
66946;SDS011;53853;51.982;5.928;2022-12-29T00:27:46;4.13;;;3.15;;
66946;SDS011;53853;51.982;5.928;2022-12-29T00:30:30;4.00;;;3.05;;
66946;SDS011;53853;51.982;5.928;2022-12-29T00:33:13;4.38;;;2.70;;
66946;SDS011;53853;51.982;5.928;2022-12-29T00:38:30;3.38;;;2.58;;
66946;SDS011;53853;51.982;5.928;2022-12-29T00:41:16;3.80;;;2.67;;
66946;SDS011;53853;51.982;5.928;2022-12-29T00:46:39;5.93;;;3.00;;
66946;SDS011;53853;51.982;5.928;2022-12-29T00:49:11;3.33;;;2.60;;
66946;SDS011;53853;51.982;5.928;2022-12-29T00:51:54;3.13;;;2.08;;
66946;SDS011;53853;51.982;5.928;2022-12-29T00:54:25;4.30;;;2.65;;
66946;SDS011;53853;51.982;5.928;2022-12-29T00:56:56;4.43;;;2.40;;
66946;SDS011;53853;51.982;5.928;2022-12-29T00:59:26;4.63;;;2.65;;
66946;SDS011;53853;51.982;5.928;2022-12-29T01:01:59;3.38;;;2.25;;
66946;SDS011;53853;51.982;5.928;2022-12-29T01:04:29;3.75;;;1.88;;
66946;SDS011;53853;51.982;5.928;2022-12-29T01:06:59;2.88;;;2.13;;
66946;SDS011;53853;51.982;5.928;2022-12-29T01:09:29;2.75;;;1.92;;
66946;SDS011;53853;51.982;5.928;2022-12-29T01:12:12;4.00;;;2.40;;
66946;SDS011;53853;51.982;5.928;2022-12-29T01:14:42;3.08;;;1.75;;
66946;SDS011;53853;51.982;5.928;2022-12-29T01:17:15;4.50;;;2.22;;
66946;SDS011;53853;51.982;5.928;2022-12-29T01:19:45;2.58;;;1.65;;
66946;SDS011;53853;51.982;5.928;2022-12-29T01:22:14;2.40;;;1.40;;
66946;SDS011;53853;51.982;5.928;2022-12-29T01:24:44;4.22;;;1.50;;
66946;SDS011;53853;51.982;5.928;2022-12-29T01:27:15;2.70;;;1.38;;
66946;SDS011;53853;51.982;5.928;2022-12-29T01:29:44;3.08;;;1.58;;
66946;SDS011;53853;51.982;5.928;2022-12-29T01:32:17;2.97;;;1.67;;
66946;SDS011;53853;51.982;5.928;2022-12-29T01:34:47;3.15;;;1.95;;
66946;SDS011;53853;51.982;5.928;2022-12-29T01:37:17;3.97;;;1.52;;
66946;SDS011;53853;51.982;5.928;2022-12-29T01:39:47;2.35;;;1.40;;
66946;SDS011;53853;51.982;5.928;2022-12-29T01:42:17;3.75;;;1.67;;
66946;SDS011;53853;51.982;5.928;2022-12-29T01:44:53;2.42;;;1.30;;
66946;SDS011;53853;51.982;5.928;2022-12-29T01:47:33;3.22;;;1.40;;
66946;SDS011;53853;51.982;5.928;2022-12-29T01:50:06;3.78;;;1.40;;
66946;SDS011;53853;51.982;5.928;2022-12-29T01:52:43;1.98;;;1.27;;
66946;SDS011;53853;51.982;5.928;2022-12-29T01:55:21;2.15;;;1.33;;
66946;SDS011;53853;51.982;5.928;2022-12-29T01:57:52;2.60;;;1.75;;
66946;SDS011;53853;51.982;5.928;2022-12-29T02:00:25;2.33;;;1.60;;
66946;SDS011;53853;51.982;5.928;2022-12-29T02:02:58;3.28;;;1.52;;
66946;SDS011;53853;51.982;5.928;2022-12-29T02:05:29;4.80;;;2.00;;
66946;SDS011;53853;51.982;5.928;2022-12-29T02:08:05;2.53;;;1.88;;
66946;SDS011;53853;51.982;5.928;2022-12-29T02:10:35;3.03;;;2.20;;
66946;SDS011;53853;51.982;5.928;2022-12-29T02:13:06;4.10;;;1.70;;
66946;SDS011;53853;51.982;5.928;2022-12-29T02:15:43;2.45;;;1.58;;
66946;SDS011;53853;51.982;5.928;2022-12-29T02:18:29;1.80;;;1.40;;
66946;SDS011;53853;51.982;5.928;2022-12-29T02:27:34;3.30;;;1.60;;
66946;SDS011;53853;51.982;5.928;2022-12-29T02:30:37;3.45;;;1.38;;
66946;SDS011;53853;51.982;5.928;2022-12-29T02:33:30;5.30;;;2.05;;
66946;SDS011;53853;51.982;5.928;2022-12-29T02:36:12;2.50;;;1.65;;
66946;SDS011;53853;51.982;5.928;2022-12-29T02:38:51;2.63;;;1.55;;
66946;SDS011;53853;51.982;5.928;2022-12-29T02:41:31;2.38;;;1.20;;
66946;SDS011;53853;51.982;5.928;2022-12-29T02:44:03;2.53;;;1.30;;
66946;SDS011;53853;51.982;5.928;2022-12-29T02:46:44;2.67;;;1.42;;
66946;SDS011;53853;51.982;5.928;2022-12-29T02:49:22;2.97;;;2.28;;
66946;SDS011;53853;51.982;5.928;2022-12-29T02:52:01;2.50;;;1.35;;
66946;SDS011;53853;51.982;5.928;2022-12-29T02:54:35;2.28;;;1.50;;
66946;SDS011;53853;51.982;5.928;2022-12-29T02:57:12;2.83;;;1.30;;
66946;SDS011;53853;51.982;5.928;2022-12-29T02:59:44;3.08;;;2.00;;
66946;SDS011;53853;51.982;5.928;2022-12-29T03:02:24;3.58;;;1.88;;
66946;SDS011;53853;51.982;5.928;2022-12-29T03:05:05;2.63;;;1.30;;
66946;SDS011;53853;51.982;5.928;2022-12-29T03:07:47;5.10;;;1.63;;
66946;SDS011;53853;51.982;5.928;2022-12-29T03:10:30;5.78;;;1.40;;
66946;SDS011;53853;51.982;5.928;2022-12-29T03:13:12;4.07;;;1.80;;
66946;SDS011;53853;51.982;5.928;2022-12-29T03:16:04;4.07;;;1.40;;
66946;SDS011;53853;51.982;5.928;2022-12-29T03:18:47;4.40;;;1.52;;
66946;SDS011;53853;51.982;5.928;2022-12-29T03:21:26;3.70;;;1.27;;
66946;SDS011;53853;51.982;5.928;2022-12-29T03:24:15;1.85;;;0.90;;
66946;SDS011;53853;51.982;5.928;2022-12-29T03:26:49;2.40;;;1.20;;
66946;SDS011;53853;51.982;5.928;2022-12-29T03:29:22;3.33;;;1.20;;
66946;SDS011;53853;51.982;5.928;2022-12-29T03:31:56;3.40;;;1.38;;
66946;SDS011;53853;51.982;5.928;2022-12-29T03:34:30;2.25;;;1.20;;
66946;SDS011;53853;51.982;5.928;2022-12-29T03:37:02;6.55;;;1.38;;
66946;SDS011;53853;51.982;5.928;2022-12-29T03:39:38;2.67;;;1.10;;
66946;SDS011;53853;51.982;5.928;2022-12-29T03:42:09;2.75;;;1.25;;
66946;SDS011;53853;51.982;5.928;2022-12-29T03:44:43;2.33;;;1.40;;
66946;SDS011;53853;51.982;5.928;2022-12-29T03:47:15;3.43;;;1.27;;
66946;SDS011;53853;51.982;5.928;2022-12-29T03:49:48;6.50;;;1.65;;
66946;SDS011;53853;51.982;5.928;2022-12-29T03:52:19;4.03;;;1.40;;
66946;SDS011;53853;51.982;5.928;2022-12-29T03:54:51;3.92;;;1.27;;
66946;SDS011;53853;51.982;5.928;2022-12-29T03:57:21;4.63;;;1.55;;
66946;SDS011;53853;51.982;5.928;2022-12-29T04:00:04;3.00;;;1.20;;
66946;SDS011;53853;51.982;5.928;2022-12-29T04:02:49;6.70;;;1.60;;
66946;SDS011;53853;51.982;5.928;2022-12-29T04:05:25;3.70;;;1.02;;
66946;SDS011;53853;51.982;5.928;2022-12-29T04:07:55;4.22;;;1.55;;
66946;SDS011;53853;51.982;5.928;2022-12-29T04:10:25;3.70;;;1.50;;
66946;SDS011;53853;51.982;5.928;2022-12-29T04:12:58;4.25;;;1.55;;
66946;SDS011;53853;51.982;5.928;2022-12-29T04:15:28;3.03;;;1.15;;
66946;SDS011;53853;51.982;5.928;2022-12-29T04:17:58;3.42;;;1.30;;
66946;SDS011;53853;51.982;5.928;2022-12-29T04:20:31;3.42;;;1.38;;
66946;SDS011;53853;51.982;5.928;2022-12-29T04:23:13;6.25;;;2.00;;
66946;SDS011;53853;51.982;5.928;2022-12-29T04:25:44;3.50;;;1.63;;
66946;SDS011;53853;51.982;5.928;2022-12-29T04:28:15;3.50;;;1.35;;
66946;SDS011;53853;51.982;5.928;2022-12-29T04:30:46;3.47;;;1.27;;
66946;SDS011;53853;51.982;5.928;2022-12-29T04:33:24;3.92;;;1.48;;
66946;SDS011;53853;51.982;5.928;2022-12-29T04:35:57;5.90;;;1.52;;
66946;SDS011;53853;51.982;5.928;2022-12-29T04:38:27;4.38;;;1.63;;
66946;SDS011;53853;51.982;5.928;2022-12-29T04:40:59;3.13;;;1.20;;
66946;SDS011;53853;51.982;5.928;2022-12-29T04:43:30;1.98;;;1.15;;
66946;SDS011;53853;51.982;5.928;2022-12-29T04:46:12;3.97;;;1.30;;
66946;SDS011;53853;51.982;5.928;2022-12-29T04:48:48;2.72;;;1.30;;
66946;SDS011;53853;51.982;5.928;2022-12-29T04:51:40;3.83;;;1.33;;
66946;SDS011;53853;51.982;5.928;2022-12-29T04:54:13;4.35;;;1.40;;
66946;SDS011;53853;51.982;5.928;2022-12-29T04:59:17;8.02;;;1.75;;
66946;SDS011;53853;51.982;5.928;2022-12-29T05:01:49;5.10;;;1.52;;
66946;SDS011;53853;51.982;5.928;2022-12-29T05:04:19;3.70;;;1.33;;
66946;SDS011;53853;51.982;5.928;2022-12-29T05:06:52;6.45;;;1.83;;
66946;SDS011;53853;51.982;5.928;2022-12-29T05:09:22;7.13;;;2.05;;
66946;SDS011;53853;51.982;5.928;2022-12-29T05:11:52;5.35;;;2.00;;
66946;SDS011;53853;51.982;5.928;2022-12-29T05:14:22;3.78;;;1.45;;
66946;SDS011;53853;51.982;5.928;2022-12-29T05:16:53;3.28;;;1.50;;
66946;SDS011;53853;51.982;5.928;2022-12-29T05:19:24;7.47;;;2.00;;
66946;SDS011;53853;51.982;5.928;2022-12-29T05:21:57;5.43;;;2.00;;
66946;SDS011;53853;51.982;5.928;2022-12-29T05:24:27;3.85;;;1.50;;
66946;SDS011;53853;51.982;5.928;2022-12-29T05:26:57;5.78;;;1.50;;
66946;SDS011;53853;51.982;5.928;2022-12-29T05:29:53;4.05;;;1.48;;
66946;SDS011;53853;51.982;5.928;2022-12-29T05:32:23;4.65;;;1.83;;
66946;SDS011;53853;51.982;5.928;2022-12-29T05:34:53;3.72;;;1.60;;
66946;SDS011;53853;51.982;5.928;2022-12-29T05:37:27;4.60;;;1.65;;
66946;SDS011;53853;51.982;5.928;2022-12-29T05:39:57;6.78;;;2.05;;
66946;SDS011;53853;51.982;5.928;2022-12-29T05:42:27;6.38;;;1.85;;
66946;SDS011;53853;51.982;5.928;2022-12-29T05:47:53;4.07;;;2.10;;
66946;SDS011;53853;51.982;5.928;2022-12-29T05:50:32;5.75;;;1.52;;
66946;SDS011;53853;51.982;5.928;2022-12-29T05:53:10;3.83;;;1.30;;
66946;SDS011;53853;51.982;5.928;2022-12-29T05:55:42;4.85;;;1.58;;
66946;SDS011;53853;51.982;5.928;2022-12-29T05:58:12;3.95;;;1.50;;
66946;SDS011;53853;51.982;5.928;2022-12-29T06:00:42;5.20;;;1.80;;
66946;SDS011;53853;51.982;5.928;2022-12-29T06:03:13;3.53;;;1.50;;
66946;SDS011;53853;51.982;5.928;2022-12-29T06:05:44;3.80;;;1.67;;
66946;SDS011;53853;51.982;5.928;2022-12-29T06:08:18;8.45;;;1.92;;
66946;SDS011;53853;51.982;5.928;2022-12-29T06:10:49;5.18;;;1.48;;
66946;SDS011;53853;51.982;5.928;2022-12-29T06:13:19;7.38;;;2.20;;
66946;SDS011;53853;51.982;5.928;2022-12-29T06:15:50;9.90;;;2.00;;
66946;SDS011;53853;51.982;5.928;2022-12-29T06:18:20;5.57;;;2.00;;
66946;SDS011;53853;51.982;5.928;2022-12-29T06:20:50;5.00;;;1.60;;
66946;SDS011;53853;51.982;5.928;2022-12-29T06:23:24;5.53;;;1.98;;
66946;SDS011;53853;51.982;5.928;2022-12-29T06:25:55;8.07;;;2.30;;
66946;SDS011;53853;51.982;5.928;2022-12-29T06:28:25;9.32;;;3.28;;
66946;SDS011;53853;51.982;5.928;2022-12-29T06:30:55;7.72;;;2.42;;
66946;SDS011;53853;51.982;5.928;2022-12-29T06:33:25;6.18;;;1.90;;
66946;SDS011;53853;51.982;5.928;2022-12-29T06:35:55;7.68;;;1.98;;
66946;SDS011;53853;51.982;5.928;2022-12-29T06:38:27;6.70;;;2.03;;
66946;SDS011;53853;51.982;5.928;2022-12-29T06:40:58;5.72;;;1.88;;
66946;SDS011;53853;51.982;5.928;2022-12-29T06:43:28;8.60;;;2.60;;
66946;SDS011;53853;51.982;5.928;2022-12-29T06:46:19;6.75;;;1.98;;
66946;SDS011;53853;51.982;5.928;2022-12-29T06:48:48;6.70;;;1.77;;
66946;SDS011;53853;51.982;5.928;2022-12-29T06:51:18;7.93;;;2.38;;
66946;SDS011;53853;51.982;5.928;2022-12-29T06:53:51;6.40;;;1.88;;
66946;SDS011;53853;51.982;5.928;2022-12-29T06:56:21;7.82;;;2.30;;
66946;SDS011;53853;51.982;5.928;2022-12-29T06:58:51;5.80;;;1.60;;
66946;SDS011;53853;51.982;5.928;2022-12-29T07:01:20;7.10;;;2.05;;
66946;SDS011;53853;51.982;5.928;2022-12-29T07:03:50;8.25;;;2.08;;
66946;SDS011;53853;51.982;5.928;2022-12-29T07:06:20;9.75;;;2.50;;
66946;SDS011;53853;51.982;5.928;2022-12-29T07:08:53;5.68;;;2.30;;
66946;SDS011;53853;51.982;5.928;2022-12-29T07:11:23;6.30;;;1.83;;
66946;SDS011;53853;51.982;5.928;2022-12-29T07:13:53;5.65;;;1.65;;
66946;SDS011;53853;51.982;5.928;2022-12-29T07:16:23;4.50;;;1.60;;
66946;SDS011;53853;51.982;5.928;2022-12-29T07:18:55;12.63;;;2.42;;
66946;SDS011;53853;51.982;5.928;2022-12-29T07:21:25;7.22;;;2.03;;
66946;SDS011;53853;51.982;5.928;2022-12-29T07:23:57;10.13;;;2.13;;
66946;SDS011;53853;51.982;5.928;2022-12-29T07:26:27;7.13;;;2.00;;
66946;SDS011;53853;51.982;5.928;2022-12-29T07:28:57;8.13;;;2.13;;
66946;SDS011;53853;51.982;5.928;2022-12-29T07:31:28;5.55;;;2.08;;
66946;SDS011;53853;51.982;5.928;2022-12-29T07:33:58;4.95;;;1.92;;
66946;SDS011;53853;51.982;5.928;2022-12-29T07:36:28;6.88;;;1.48;;
66946;SDS011;53853;51.982;5.928;2022-12-29T07:39:01;5.10;;;1.70;;
66946;SDS011;53853;51.982;5.928;2022-12-29T07:41:31;4.22;;;1.85;;
66946;SDS011;53853;51.982;5.928;2022-12-29T07:44:02;6.93;;;1.90;;
66946;SDS011;53853;51.982;5.928;2022-12-29T07:46:50;10.35;;;2.15;;
66946;SDS011;53853;51.982;5.928;2022-12-29T07:49:20;5.80;;;1.98;;
66946;SDS011;53853;51.982;5.928;2022-12-29T07:51:50;14.02;;;5.82;;
66946;SDS011;53853;51.982;5.928;2022-12-29T07:54:23;6.80;;;2.17;;
66946;SDS011;53853;51.982;5.928;2022-12-29T07:56:53;7.15;;;2.70;;
66946;SDS011;53853;51.982;5.928;2022-12-29T07:59:26;4.72;;;1.77;;
66946;SDS011;53853;51.982;5.928;2022-12-29T08:01:56;9.27;;;3.22;;
66946;SDS011;53853;51.982;5.928;2022-12-29T08:04:26;7.70;;;2.70;;
66946;SDS011;53853;51.982;5.928;2022-12-29T08:06:56;7.38;;;1.65;;
66946;SDS011;53853;51.982;5.928;2022-12-29T08:09:28;13.15;;;2.53;;
66946;SDS011;53853;51.982;5.928;2022-12-29T08:11:58;10.88;;;2.88;;
66946;SDS011;53853;51.982;5.928;2022-12-29T08:14:28;7.38;;;2.20;;
66946;SDS011;53853;51.982;5.928;2022-12-29T08:16:58;8.07;;;2.05;;
66946;SDS011;53853;51.982;5.928;2022-12-29T08:19:28;7.65;;;2.05;;
66946;SDS011;53853;51.982;5.928;2022-12-29T08:21:58;8.57;;;2.42;;
66946;SDS011;53853;51.982;5.928;2022-12-29T08:24:30;14.82;;;3.30;;
66946;SDS011;53853;51.982;5.928;2022-12-29T08:27:00;7.38;;;2.90;;
66946;SDS011;53853;51.982;5.928;2022-12-29T08:29:30;8.52;;;2.22;;
66946;SDS011;53853;51.982;5.928;2022-12-29T08:32:00;12.07;;;2.70;;
66946;SDS011;53853;51.982;5.928;2022-12-29T08:34:30;7.32;;;2.10;;
66946;SDS011;53853;51.982;5.928;2022-12-29T08:37:00;7.07;;;2.10;;
66946;SDS011;53853;51.982;5.928;2022-12-29T08:39:33;10.15;;;2.40;;
66946;SDS011;53853;51.982;5.928;2022-12-29T08:42:03;8.65;;;2.25;;
66946;SDS011;53853;51.982;5.928;2022-12-29T08:44:33;10.32;;;2.08;;
66946;SDS011;53853;51.982;5.928;2022-12-29T08:47:03;9.80;;;2.38;;
66946;SDS011;53853;51.982;5.928;2022-12-29T08:49:33;8.93;;;2.35;;
66946;SDS011;53853;51.982;5.928;2022-12-29T08:52:03;9.25;;;2.55;;
66946;SDS011;53853;51.982;5.928;2022-12-29T08:54:36;8.25;;;2.75;;
66946;SDS011;53853;51.982;5.928;2022-12-29T08:57:06;11.65;;;2.65;;
66946;SDS011;53853;51.982;5.928;2022-12-29T08:59:43;9.00;;;2.50;;
66946;SDS011;53853;51.982;5.928;2022-12-29T09:02:14;11.63;;;2.40;;
66946;SDS011;53853;51.982;5.928;2022-12-29T09:04:44;7.13;;;2.45;;
66946;SDS011;53853;51.982;5.928;2022-12-29T09:07:14;11.05;;;2.70;;
66946;SDS011;53853;51.982;5.928;2022-12-29T09:09:46;6.68;;;1.90;;
66946;SDS011;53853;51.982;5.928;2022-12-29T09:12:16;8.65;;;2.50;;
66946;SDS011;53853;51.982;5.928;2022-12-29T09:14:46;8.52;;;3.22;;
66946;SDS011;53853;51.982;5.928;2022-12-29T09:17:16;8.75;;;2.83;;
66946;SDS011;53853;51.982;5.928;2022-12-29T09:19:58;9.50;;;2.47;;
66946;SDS011;53853;51.982;5.928;2022-12-29T09:22:28;11.00;;;2.45;;
66946;SDS011;53853;51.982;5.928;2022-12-29T09:25:01;9.02;;;2.92;;
66946;SDS011;53853;51.982;5.928;2022-12-29T09:27:31;10.45;;;2.63;;
66946;SDS011;53853;51.982;5.928;2022-12-29T09:30:01;9.95;;;2.33;;
66946;SDS011;53853;51.982;5.928;2022-12-29T09:32:32;14.20;;;2.65;;
66946;SDS011;53853;51.982;5.928;2022-12-29T09:35:03;11.70;;;2.85;;
66946;SDS011;53853;51.982;5.928;2022-12-29T09:37:33;11.55;;;2.70;;
66946;SDS011;53853;51.982;5.928;2022-12-29T09:40:07;9.52;;;3.22;;
66946;SDS011;53853;51.982;5.928;2022-12-29T09:42:55;11.18;;;2.75;;
66946;SDS011;53853;51.982;5.928;2022-12-29T09:45:40;10.52;;;2.85;;
66946;SDS011;53853;51.982;5.928;2022-12-29T09:48:14;13.80;;;3.00;;
66946;SDS011;53853;51.982;5.928;2022-12-29T09:50:49;8.38;;;2.42;;
66946;SDS011;53853;51.982;5.928;2022-12-29T09:53:25;7.15;;;2.45;;
66946;SDS011;53853;51.982;5.928;2022-12-29T09:56:03;7.78;;;2.20;;
66946;SDS011;53853;51.982;5.928;2022-12-29T09:58:41;8.65;;;2.63;;
66946;SDS011;53853;51.982;5.928;2022-12-29T10:01:21;10.65;;;2.47;;
66946;SDS011;53853;51.982;5.928;2022-12-29T10:03:57;11.13;;;2.60;;
66946;SDS011;53853;51.982;5.928;2022-12-29T10:06:31;11.85;;;2.72;;
66946;SDS011;53853;51.982;5.928;2022-12-29T10:09:10;6.40;;;2.15;;
66946;SDS011;53853;51.982;5.928;2022-12-29T10:11:54;7.80;;;2.10;;
66946;SDS011;53853;51.982;5.928;2022-12-29T10:14:35;7.55;;;2.88;;
66946;SDS011;53853;51.982;5.928;2022-12-29T10:17:20;6.82;;;2.03;;
66946;SDS011;53853;51.982;5.928;2022-12-29T10:20:07;10.48;;;2.40;;
66946;SDS011;53853;51.982;5.928;2022-12-29T10:22:54;9.00;;;1.92;;
66946;SDS011;53853;51.982;5.928;2022-12-29T10:25:35;5.18;;;1.98;;
66946;SDS011;53853;51.982;5.928;2022-12-29T10:28:15;7.75;;;2.83;;
66946;SDS011;53853;51.982;5.928;2022-12-29T10:30:47;6.93;;;2.25;;
66946;SDS011;53853;51.982;5.928;2022-12-29T10:33:19;7.00;;;2.33;;
66946;SDS011;53853;51.982;5.928;2022-12-29T10:35:52;5.47;;;2.35;;
66946;SDS011;53853;51.982;5.928;2022-12-29T10:38:24;9.43;;;2.40;;
66946;SDS011;53853;51.982;5.928;2022-12-29T10:40:58;8.35;;;2.60;;
66946;SDS011;53853;51.982;5.928;2022-12-29T10:43:36;9.68;;;3.08;;
66946;SDS011;53853;51.982;5.928;2022-12-29T10:46:15;7.18;;;2.60;;
66946;SDS011;53853;51.982;5.928;2022-12-29T10:48:47;8.55;;;2.42;;
66946;SDS011;53853;51.982;5.928;2022-12-29T10:51:19;7.95;;;3.05;;
66946;SDS011;53853;51.982;5.928;2022-12-29T10:53:52;9.00;;;2.38;;
66946;SDS011;53853;51.982;5.928;2022-12-29T10:56:29;8.88;;;2.83;;
66946;SDS011;53853;51.982;5.928;2022-12-29T10:59:06;5.75;;;2.00;;
66946;SDS011;53853;51.982;5.928;2022-12-29T11:01:48;8.35;;;2.20;;
66946;SDS011;53853;51.982;5.928;2022-12-29T11:04:28;8.10;;;2.70;;
66946;SDS011;53853;51.982;5.928;2022-12-29T11:07:16;9.32;;;2.83;;
66946;SDS011;53853;51.982;5.928;2022-12-29T11:09:47;10.75;;;2.55;;
66946;SDS011;53853;51.982;5.928;2022-12-29T11:12:18;6.80;;;2.75;;
66946;SDS011;53853;51.982;5.928;2022-12-29T11:15:10;7.65;;;2.95;;
66946;SDS011;53853;51.982;5.928;2022-12-29T11:17:45;8.55;;;3.00;;
66946;SDS011;53853;51.982;5.928;2022-12-29T11:20:27;8.05;;;2.75;;
66946;SDS011;53853;51.982;5.928;2022-12-29T11:22:59;9.43;;;3.63;;
66946;SDS011;53853;51.982;5.928;2022-12-29T11:25:30;10.48;;;4.15;;
66946;SDS011;53853;51.982;5.928;2022-12-29T11:28:00;7.70;;;3.03;;
66946;SDS011;53853;51.982;5.928;2022-12-29T11:30:34;15.68;;;4.25;;
66946;SDS011;53853;51.982;5.928;2022-12-29T11:33:04;8.70;;;2.83;;
66946;SDS011;53853;51.982;5.928;2022-12-29T11:35:35;13.23;;;3.65;;
66946;SDS011;53853;51.982;5.928;2022-12-29T11:38:15;12.63;;;3.92;;
66946;SDS011;53853;51.982;5.928;2022-12-29T11:40:49;10.52;;;3.88;;
66946;SDS011;53853;51.982;5.928;2022-12-29T11:43:21;12.45;;;4.13;;
66946;SDS011;53853;51.982;5.928;2022-12-29T11:46:01;13.60;;;3.75;;
66946;SDS011;53853;51.982;5.928;2022-12-29T11:48:33;8.18;;;3.45;;
66946;SDS011;53853;51.982;5.928;2022-12-29T11:51:08;9.35;;;2.85;;
66946;SDS011;53853;51.982;5.928;2022-12-29T11:53:42;13.55;;;3.90;;
66946;SDS011;53853;51.982;5.928;2022-12-29T11:56:15;10.00;;;3.95;;
66946;SDS011;53853;51.982;5.928;2022-12-29T11:58:48;11.15;;;3.28;;
66946;SDS011;53853;51.982;5.928;2022-12-29T12:01:23;14.98;;;4.47;;
66946;SDS011;53853;51.982;5.928;2022-12-29T12:04:03;9.48;;;3.47;;
66946;SDS011;53853;51.982;5.928;2022-12-29T12:06:36;14.00;;;3.73;;
66946;SDS011;53853;51.982;5.928;2022-12-29T12:09:21;15.43;;;4.03;;
66946;SDS011;53853;51.982;5.928;2022-12-29T12:11:55;9.57;;;3.70;;
66946;SDS011;53853;51.982;5.928;2022-12-29T12:14:29;9.93;;;4.18;;
66946;SDS011;53853;51.982;5.928;2022-12-29T12:17:27;11.05;;;4.47;;
66946;SDS011;53853;51.982;5.928;2022-12-29T12:20:04;11.10;;;3.78;;
66946;SDS011;53853;51.982;5.928;2022-12-29T12:22:48;12.23;;;3.43;;
66946;SDS011;53853;51.982;5.928;2022-12-29T12:25:24;14.13;;;4.40;;
66946;SDS011;53853;51.982;5.928;2022-12-29T12:28:02;12.50;;;4.03;;
66946;SDS011;53853;51.982;5.928;2022-12-29T12:30:40;9.30;;;3.90;;
66946;SDS011;53853;51.982;5.928;2022-12-29T12:33:18;12.98;;;3.90;;
66946;SDS011;53853;51.982;5.928;2022-12-29T12:36:04;11.40;;;3.65;;
66946;SDS011;53853;51.982;5.928;2022-12-29T12:38:46;12.48;;;3.88;;
66946;SDS011;53853;51.982;5.928;2022-12-29T12:41:25;13.98;;;4.53;;
66946;SDS011;53853;51.982;5.928;2022-12-29T12:44:07;9.17;;;3.93;;
66946;SDS011;53853;51.982;5.928;2022-12-29T12:46:51;13.73;;;4.47;;
66946;SDS011;53853;51.982;5.928;2022-12-29T12:49:53;13.63;;;4.07;;
66946;SDS011;53853;51.982;5.928;2022-12-29T12:52:51;10.63;;;4.32;;
66946;SDS011;53853;51.982;5.928;2022-12-29T12:55:41;13.88;;;5.00;;
66946;SDS011;53853;51.982;5.928;2022-12-29T12:58:25;11.95;;;3.95;;
66946;SDS011;53853;51.982;5.928;2022-12-29T13:01:11;13.98;;;3.97;;
66946;SDS011;53853;51.982;5.928;2022-12-29T13:03:59;11.23;;;3.85;;
66946;SDS011;53853;51.982;5.928;2022-12-29T13:06:51;12.80;;;3.85;;
66946;SDS011;53853;51.982;5.928;2022-12-29T13:09:42;9.35;;;3.45;;
66946;SDS011;53853;51.982;5.928;2022-12-29T13:12:24;11.65;;;3.72;;
66946;SDS011;53853;51.982;5.928;2022-12-29T13:15:04;14.88;;;4.82;;
66946;SDS011;53853;51.982;5.928;2022-12-29T13:17:42;12.27;;;3.78;;
66946;SDS011;53853;51.982;5.928;2022-12-29T13:20:20;11.48;;;3.47;;
66946;SDS011;53853;51.982;5.928;2022-12-29T13:23:02;9.90;;;3.42;;
66946;SDS011;53853;51.982;5.928;2022-12-29T13:25:40;11.60;;;3.85;;
66946;SDS011;53853;51.982;5.928;2022-12-29T13:28:15;10.30;;;3.53;;
66946;SDS011;53853;51.982;5.928;2022-12-29T13:30:53;13.93;;;3.83;;
66946;SDS011;53853;51.982;5.928;2022-12-29T13:33:32;15.05;;;3.92;;
66946;SDS011;53853;51.982;5.928;2022-12-29T13:36:10;10.43;;;3.47;;
66946;SDS011;53853;51.982;5.928;2022-12-29T13:38:50;21.05;;;5.13;;
66946;SDS011;53853;51.982;5.928;2022-12-29T13:41:27;8.75;;;3.45;;
66946;SDS011;53853;51.982;5.928;2022-12-29T13:44:01;9.18;;;3.00;;
66946;SDS011;53853;51.982;5.928;2022-12-29T13:46:34;13.75;;;3.67;;
66946;SDS011;53853;51.982;5.928;2022-12-29T13:49:11;12.65;;;3.67;;
66946;SDS011;53853;51.982;5.928;2022-12-29T13:51:46;13.50;;;3.67;;
66946;SDS011;53853;51.982;5.928;2022-12-29T13:54:25;10.02;;;2.95;;
66946;SDS011;53853;51.982;5.928;2022-12-29T13:57:06;14.80;;;3.28;;
66946;SDS011;53853;51.982;5.928;2022-12-29T13:59:43;9.60;;;3.92;;
66946;SDS011;53853;51.982;5.928;2022-12-29T14:02:24;11.43;;;3.42;;
66946;SDS011;53853;51.982;5.928;2022-12-29T14:05:02;9.57;;;2.92;;
66946;SDS011;53853;51.982;5.928;2022-12-29T14:07:36;9.98;;;3.47;;
66946;SDS011;53853;51.982;5.928;2022-12-29T14:10:18;9.98;;;3.25;;
66946;SDS011;53853;51.982;5.928;2022-12-29T14:13:00;14.32;;;3.47;;
66946;SDS011;53853;51.982;5.928;2022-12-29T14:15:33;10.25;;;3.88;;
66946;SDS011;53853;51.982;5.928;2022-12-29T14:18:11;9.18;;;2.78;;
66946;SDS011;53853;51.982;5.928;2022-12-29T14:20:50;8.05;;;3.03;;
66946;SDS011;53853;51.982;5.928;2022-12-29T14:23:35;8.75;;;2.53;;
66946;SDS011;53853;51.982;5.928;2022-12-29T14:26:14;8.88;;;4.38;;
66946;SDS011;53853;51.982;5.928;2022-12-29T14:28:46;7.72;;;2.60;;
66946;SDS011;53853;51.982;5.928;2022-12-29T14:34:16;7.68;;;2.33;;
66946;SDS011;53853;51.982;5.928;2022-12-29T14:36:59;5.75;;;1.95;;
66946;SDS011;53853;51.982;5.928;2022-12-29T14:39:35;4.15;;;2.35;;
66946;SDS011;53853;51.982;5.928;2022-12-29T14:42:11;5.38;;;2.05;;
66946;SDS011;53853;51.982;5.928;2022-12-29T14:44:47;6.07;;;2.53;;
66946;SDS011;53853;51.982;5.928;2022-12-29T14:47:19;6.88;;;2.28;;
66946;SDS011;53853;51.982;5.928;2022-12-29T14:49:53;7.63;;;2.42;;
66946;SDS011;53853;51.982;5.928;2022-12-29T14:52:25;10.45;;;3.10;;
66946;SDS011;53853;51.982;5.928;2022-12-29T14:54:57;9.30;;;1.90;;
66946;SDS011;53853;51.982;5.928;2022-12-29T14:57:51;7.47;;;3.05;;
66946;SDS011;53853;51.982;5.928;2022-12-29T15:00:29;5.85;;;2.50;;
66946;SDS011;53853;51.982;5.928;2022-12-29T15:03:03;6.93;;;2.70;;
66946;SDS011;53853;51.982;5.928;2022-12-29T15:05:36;6.63;;;2.13;;
66946;SDS011;53853;51.982;5.928;2022-12-29T15:08:11;4.90;;;2.40;;
66946;SDS011;53853;51.982;5.928;2022-12-29T15:10:45;5.43;;;2.08;;
66946;SDS011;53853;51.982;5.928;2022-12-29T15:13:24;7.60;;;2.58;;
66946;SDS011;53853;51.982;5.928;2022-12-29T15:18:49;6.68;;;2.47;;
66946;SDS011;53853;51.982;5.928;2022-12-29T15:21:20;11.00;;;2.80;;
66946;SDS011;53853;51.982;5.928;2022-12-29T15:23:53;7.22;;;2.53;;
66946;SDS011;53853;51.982;5.928;2022-12-29T15:26:24;12.60;;;2.85;;
66946;SDS011;53853;51.982;5.928;2022-12-29T15:29:26;12.32;;;3.35;;
66946;SDS011;53853;51.982;5.928;2022-12-29T15:31:59;6.65;;;2.28;;
66946;SDS011;53853;51.982;5.928;2022-12-29T15:34:39;8.35;;;2.67;;
66946;SDS011;53853;51.982;5.928;2022-12-29T15:37:09;9.65;;;3.10;;
66946;SDS011;53853;51.982;5.928;2022-12-29T15:39:46;11.05;;;3.15;;
66946;SDS011;53853;51.982;5.928;2022-12-29T15:42:20;11.35;;;3.42;;
66946;SDS011;53853;51.982;5.928;2022-12-29T15:45:01;8.07;;;3.28;;
66946;SDS011;53853;51.982;5.928;2022-12-29T15:47:34;8.80;;;3.63;;
66946;SDS011;53853;51.982;5.928;2022-12-29T15:50:05;9.00;;;2.75;;
66946;SDS011;53853;51.982;5.928;2022-12-29T15:52:37;7.93;;;2.58;;
66946;SDS011;53853;51.982;5.928;2022-12-29T15:55:16;9.50;;;2.78;;
66946;SDS011;53853;51.982;5.928;2022-12-29T15:57:49;13.52;;;3.45;;